createdAt,value
2018-09-26T00:00:45.393Z,96393.70
2018-09-26T00:03:18.807Z,96390.75
2018-09-26T00:05:48.572Z,96387.58
2018-09-26T00:08:17.880Z,96392.60
2018-09-26T00:10:47.255Z,96395.81
2018-09-26T00:13:16.432Z,96388.80
2018-09-26T00:15:45.833Z,96385.98
2018-09-26T00:18:14.820Z,96381.73
2018-09-26T00:20:43.816Z,96388.86
2018-09-26T00:23:12.738Z,96388.80
2018-09-26T00:25:41.644Z,96395.47
2018-09-26T00:28:10.474Z,96399.99
2018-09-26T00:30:39.441Z,96400.36
2018-09-26T00:33:08.454Z,96390.67
2018-09-26T00:35:37.334Z,96393.12
2018-09-26T00:38:06.253Z,96393.41
2018-09-26T00:40:35.124Z,96392.53
2018-09-26T00:43:04.095Z,96388.87
2018-09-26T00:45:32.973Z,96384.95
2018-09-26T00:48:01.833Z,96386.25
2018-09-26T00:50:30.792Z,96397.02
2018-09-26T00:52:59.599Z,96391.31
2018-09-26T00:55:28.423Z,96395.70
2018-09-26T00:57:57.425Z,96394.55
2018-09-26T01:00:26.287Z,96397.67
2018-09-26T01:02:55.324Z,96395.40
2018-09-26T01:05:24.124Z,96392.64
2018-09-26T01:07:53.122Z,96396.84
2018-09-26T01:10:22.032Z,96401.24
2018-09-26T01:12:51.021Z,96401.65
2018-09-26T01:15:19.847Z,96397.63
2018-09-26T01:17:48.662Z,96401.48
2018-09-26T01:20:17.457Z,96405.03
2018-09-26T01:22:46.409Z,96401.05
2018-09-26T01:25:15.347Z,96405.55
2018-09-26T01:27:44.222Z,96409.80
2018-09-26T01:30:13.178Z,96411.66
2018-09-26T01:32:41.981Z,96408.67
2018-09-26T01:35:10.771Z,96404.69
2018-09-26T01:37:39.649Z,96413.65
2018-09-26T01:40:08.594Z,96408.36
2018-09-26T01:42:37.452Z,96415.33
2018-09-26T01:45:06.868Z,96411.81
2018-09-26T01:47:35.809Z,96417.52
2018-09-26T01:50:04.773Z,96411.49
2018-09-26T01:52:33.690Z,96408.19
2018-09-26T01:55:02.513Z,96408.50
2018-09-26T01:57:31.397Z,96405.95
2018-09-26T02:00:00.188Z,96412.35
2018-09-26T02:02:29.056Z,96410.52
2018-09-26T02:04:57.856Z,96407.70
2018-09-26T02:07:26.689Z,96406.80
2018-09-26T02:09:55.503Z,96403.45
2018-09-26T02:12:24.420Z,96413.53
2018-09-26T02:14:53.545Z,96404.41
2018-09-26T02:17:22.490Z,96408.45
2018-09-26T02:19:51.288Z,96410.19
2018-09-26T02:22:20.108Z,96409.71
2018-09-26T02:24:49.031Z,96413.96
2018-09-26T02:27:17.936Z,96412.79
2018-09-26T02:29:46.705Z,96412.02
2018-09-26T02:32:15.623Z,96411.05
2018-09-26T02:34:44.440Z,96406.19
2018-09-26T02:37:13.228Z,96402.88
2018-09-26T02:39:42.011Z,96397.41
2018-09-26T02:42:10.809Z,96397.84
2018-09-26T02:44:39.664Z,96399.06
2018-09-26T02:47:08.546Z,96399.14
2018-09-26T02:49:37.364Z,96398.30
2018-09-26T02:52:06.236Z,96399.53
2018-09-26T02:54:35.028Z,96400.15
2018-09-26T02:57:03.857Z,96398.45
2018-09-26T02:59:32.741Z,96402.02
2018-09-26T03:02:01.662Z,96402.02
2018-09-26T03:04:30.557Z,96402.02
2018-09-26T03:06:59.415Z,96398.19
2018-09-26T03:09:28.239Z,96402.14
2018-09-26T03:11:57.299Z,96392.41
2018-09-26T03:14:26.206Z,96385.89
2018-09-26T03:16:55.062Z,96390.76
2018-09-26T03:19:24.010Z,96395.41
2018-09-26T03:21:52.923Z,96395.83
2018-09-26T03:24:21.735Z,96397.05
2018-09-26T03:26:50.625Z,96395.36
2018-09-26T03:29:19.503Z,96402.02
2018-09-26T03:31:48.425Z,96402.49
2018-09-26T03:34:17.284Z,96399.54
2018-09-26T03:36:46.133Z,96397.55
2018-09-26T03:39:15.074Z,96393.84
2018-09-26T03:41:44.095Z,96395.71
2018-09-26T03:44:12.964Z,96398.67
2018-09-26T03:46:41.958Z,96400.84
2018-09-26T03:49:10.732Z,96404.70
2018-09-26T03:51:39.604Z,96393.85
2018-09-26T03:54:08.549Z,96396.89
2018-09-26T03:56:37.381Z,96404.02
2018-09-26T03:59:06.631Z,96406.14
2018-09-26T04:01:35.480Z,96409.02
2018-09-26T04:04:04.329Z,96403.20
2018-09-26T04:06:39.733Z,96411.97
2018-09-26T04:09:09.459Z,96410.32
2018-09-26T04:11:38.571Z,96413.63
2018-09-26T04:14:07.455Z,96417.45
2018-09-26T04:16:36.270Z,96418.41
2018-09-26T04:19:05.057Z,96412.19
2018-09-26T04:21:33.924Z,96421.66
2018-09-26T04:24:02.795Z,96424.27
2018-09-26T04:26:32.640Z,96431.88
2018-09-26T04:29:01.488Z,96435.78
2018-09-26T04:31:30.313Z,96436.88
2018-09-26T04:33:59.242Z,96442.52
2018-09-26T04:36:28.285Z,96441.61
2018-09-26T04:38:57.253Z,96443.25
2018-09-26T04:41:26.172Z,96450.51
2018-09-26T04:43:55.098Z,96451.59
2018-09-26T04:46:23.945Z,96448.58
2018-09-26T04:48:53.060Z,96455.51
2018-09-26T04:51:21.953Z,96458.06
2018-09-26T04:53:51.317Z,96461.88
2018-09-26T04:56:20.318Z,96462.98
2018-09-26T04:58:49.292Z,96463.40
2018-09-26T05:01:18.111Z,96465.23
2018-09-26T05:03:46.968Z,96466.97
2018-09-26T05:06:15.785Z,96472.67
2018-09-26T05:08:44.594Z,96475.89
2018-09-26T05:11:13.483Z,96473.63
2018-09-26T05:13:42.319Z,96478.50
2018-09-26T05:16:11.117Z,96477.27
2018-09-26T05:18:39.945Z,96470.95
2018-09-26T05:21:09.304Z,96478.35
2018-09-26T05:23:38.205Z,96477.73
2018-09-26T05:26:07.157Z,96478.11
2018-09-26T05:28:36.072Z,96478.38
2018-09-26T05:31:04.919Z,96481.84
2018-09-26T05:33:33.751Z,96483.00
2018-09-26T05:36:02.632Z,96488.84
2018-09-26T05:38:31.489Z,96490.26
2018-09-26T05:41:00.492Z,96495.20
2018-09-26T05:43:29.317Z,96498.64
2018-09-26T05:45:58.111Z,96495.07
2018-09-26T05:48:26.926Z,96507.38
2018-09-26T05:50:55.966Z,96502.16
2018-09-26T05:53:24.928Z,96508.13
2018-09-26T05:55:53.929Z,96507.75
2018-09-26T05:58:22.757Z,96507.61
2018-09-26T06:00:51.555Z,96512.84
2018-09-26T06:03:20.373Z,96514.92
2018-09-26T06:05:49.149Z,96515.86
2018-09-26T06:08:18.093Z,96518.78
2018-09-26T06:10:46.977Z,96516.48
2018-09-26T06:13:16.260Z,96523.11
2018-09-26T06:15:45.245Z,96523.14
2018-09-26T06:18:14.074Z,96524.63
2018-09-26T06:20:42.889Z,96525.93
2018-09-26T06:23:11.764Z,96531.16
2018-09-26T06:25:40.661Z,96534.33
2018-09-26T06:28:09.467Z,96530.23
2018-09-26T06:30:38.433Z,96534.06
2018-09-26T06:33:07.460Z,96530.97
2018-09-26T06:35:36.345Z,96533.27
2018-09-26T06:38:05.192Z,96534.37
2018-09-26T06:40:34.181Z,96536.60
2018-09-26T06:43:03.180Z,96536.77
2018-09-26T06:45:32.092Z,96538.49
2018-09-26T06:48:00.944Z,96550.94
2018-09-26T06:50:29.856Z,96543.20
2018-09-26T06:52:58.636Z,96546.72
2018-09-26T06:55:27.439Z,96549.97
2018-09-26T06:57:56.392Z,96543.84
2018-09-26T07:00:25.809Z,96542.38
2018-09-26T07:02:54.830Z,96540.27
2018-09-26T07:05:25.433Z,96544.70
2018-09-26T07:07:54.208Z,96543.05
2018-09-26T07:10:23.194Z,96548.27
2018-09-26T07:12:52.316Z,96545.99
2018-09-26T07:15:21.286Z,96544.13
2018-09-26T07:17:50.156Z,96546.77
2018-09-26T07:20:19.076Z,96541.95
2018-09-26T07:22:48.266Z,96544.23
2018-09-26T07:25:17.889Z,96540.91
2018-09-26T07:27:46.747Z,96537.80
2018-09-26T07:30:17.249Z,96540.03
2018-09-26T07:32:46.068Z,96546.34
2018-09-26T07:35:14.908Z,96539.75
2018-09-26T07:37:43.840Z,96537.18
2018-09-26T07:40:12.884Z,96530.95
2018-09-26T07:42:41.947Z,96540.59
2018-09-26T07:45:10.777Z,96540.54
2018-09-26T07:47:39.585Z,96535.64
2018-09-26T07:50:08.568Z,96538.34
2018-09-26T07:52:37.453Z,96539.02
2018-09-26T07:55:06.311Z,96536.73
2018-09-26T07:57:36.195Z,96544.69
2018-09-26T08:00:08.257Z,96544.98
2018-09-26T08:02:37.321Z,96540.79
2018-09-26T08:05:06.823Z,96540.05
2018-09-26T08:07:35.723Z,96538.44
2018-09-26T08:10:04.556Z,96544.95
2018-09-26T08:12:33.601Z,96537.84
2018-09-26T08:15:02.486Z,96536.19
2018-09-26T08:17:31.372Z,96537.88
2018-09-26T08:20:00.310Z,96525.50
2018-09-26T08:22:29.224Z,96529.92
2018-09-26T08:24:58.124Z,96529.92
2018-09-26T08:27:27.072Z,96537.91
2018-09-26T08:29:55.953Z,96526.98
2018-09-26T08:32:25.055Z,96532.87
2018-09-26T08:34:54.016Z,96531.61
2018-09-26T08:37:22.919Z,96529.52
2018-09-26T08:39:51.940Z,96532.00
2018-09-26T08:42:20.787Z,96526.75
2018-09-26T08:44:49.644Z,96540.22
2018-09-26T08:47:18.569Z,96534.64
2018-09-26T08:49:47.581Z,96531.17
2018-09-26T08:52:16.836Z,96528.86
2018-09-26T08:54:45.760Z,96515.77
2018-09-26T08:57:14.685Z,96530.05
2018-09-26T08:59:43.661Z,96525.28
2018-09-26T09:02:12.628Z,96518.96
2018-09-26T09:04:41.847Z,96531.34
2018-09-26T09:07:10.668Z,96519.75
2018-09-26T09:09:39.657Z,96526.05
2018-09-26T09:12:08.664Z,96538.16
2018-09-26T09:14:37.782Z,96516.06
2018-09-26T09:17:07.323Z,96553.36
2018-09-26T09:19:36.135Z,96528.69
2018-09-26T09:22:05.111Z,96526.44
2018-09-26T09:24:33.987Z,96522.27
2018-09-26T09:27:03.142Z,96524.06
2018-09-26T09:29:32.329Z,96530.78
2018-09-26T09:32:01.164Z,96527.97
2018-09-26T09:34:30.053Z,96527.63
2018-09-26T09:36:58.856Z,96540.13
2018-09-26T09:39:27.861Z,96528.50
2018-09-26T09:41:56.781Z,96539.86
2018-09-26T09:44:25.738Z,96546.73
2018-09-26T09:46:54.827Z,96538.59
2018-09-26T09:49:23.883Z,96538.21
2018-09-26T09:51:52.750Z,96539.16
2018-09-26T09:54:21.665Z,96536.20
2018-09-26T09:56:50.598Z,96532.27
2018-09-26T09:59:19.484Z,96540.52
2018-09-26T10:01:48.307Z,96525.40
2018-09-26T10:04:17.137Z,96534.81
2018-09-26T10:06:45.986Z,96543.36
2018-09-26T10:09:14.823Z,96553.69
2018-09-26T10:11:43.758Z,96532.83
2018-09-26T10:14:12.611Z,96537.92
2018-09-26T10:16:41.508Z,96524.78
2018-09-26T10:19:10.313Z,96539.22
2018-09-26T10:21:39.100Z,96521.47
2018-09-26T10:24:07.686Z,96532.97
2018-09-26T10:26:36.593Z,96524.73
2018-09-26T10:29:05.483Z,96528.38
2018-09-26T10:31:34.363Z,96533.30
2018-09-26T10:34:03.123Z,96521.33
2018-09-26T10:36:32.028Z,96525.77
2018-09-26T10:39:00.989Z,96519.67
2018-09-26T10:41:29.876Z,96516.41
2018-09-26T10:43:59.362Z,96514.59
2018-09-26T10:46:28.454Z,96514.09
2018-09-26T10:48:57.557Z,96504.65
2018-09-26T10:51:26.400Z,96507.63
2018-09-26T10:53:55.309Z,96507.98
2018-09-26T10:56:24.350Z,96508.27
2018-09-26T10:58:53.337Z,96514.84
2018-09-26T11:01:22.167Z,96506.56
2018-09-26T11:03:50.960Z,96508.63
2018-09-26T11:06:19.815Z,96499.53
2018-09-26T11:08:48.876Z,96500.73
2018-09-26T11:11:17.768Z,96492.26
2018-09-26T11:13:46.767Z,96509.36
2018-09-26T11:16:15.606Z,96494.81
2018-09-26T11:18:44.533Z,96502.92
2018-09-26T11:21:13.646Z,96490.62
2018-09-26T11:23:42.720Z,96498.52
2018-09-26T11:26:11.551Z,96499.97
2018-09-26T11:28:40.512Z,96491.93
2018-09-26T11:31:09.601Z,96485.34
2018-09-26T11:33:38.519Z,96483.66
2018-09-26T11:36:07.451Z,96492.90
2018-09-26T11:38:36.388Z,96483.22
2018-09-26T11:41:05.320Z,96477.78
2018-09-26T11:43:34.141Z,96467.57
2018-09-26T11:46:02.954Z,96476.00
2018-09-26T11:48:31.832Z,96470.53
2018-09-26T11:51:00.743Z,96464.59
2018-09-26T11:53:29.712Z,96483.96
2018-09-26T11:55:58.614Z,96468.53
2018-09-26T11:58:27.658Z,96452.95
2018-09-26T12:00:56.714Z,96461.11
2018-09-26T12:03:25.524Z,96452.38
2018-09-26T12:05:54.449Z,96468.70
2018-09-26T12:08:23.439Z,96456.03
2018-09-26T12:10:52.441Z,96444.27
2018-09-26T12:13:21.260Z,96461.28
2018-09-26T12:15:50.148Z,96456.02
2018-09-26T12:18:19.153Z,96447.99
2018-09-26T12:20:48.239Z,96442.30
2018-09-26T12:23:17.044Z,96434.77
2018-09-26T12:25:45.981Z,96442.66
2018-09-26T12:28:14.815Z,96423.19
2018-09-26T12:30:43.828Z,96427.26
2018-09-26T12:33:12.817Z,96436.00
2018-09-26T12:35:41.793Z,96436.39
2018-09-26T12:38:10.638Z,96435.72
2018-09-26T12:40:39.491Z,96424.22
2018-09-26T12:43:08.500Z,96430.13
2018-09-26T12:45:37.366Z,96431.09
2018-09-26T12:48:06.707Z,96429.23
2018-09-26T12:50:35.894Z,96449.70
2018-09-26T12:53:04.793Z,96433.66
2018-09-26T12:55:33.678Z,96432.77
2018-09-26T12:58:02.554Z,96441.36
2018-09-26T13:00:31.946Z,96462.39
2018-09-26T13:03:01.153Z,96444.97
2018-09-26T13:05:30.055Z,96436.23
2018-09-26T13:07:58.889Z,96454.80
2018-09-26T13:10:27.746Z,96445.29
2018-09-26T13:12:56.718Z,96440.67
2018-09-26T13:15:25.542Z,96435.56
2018-09-26T13:17:54.356Z,96426.66
2018-09-26T13:20:23.699Z,96427.16
2018-09-26T13:22:52.699Z,96440.50
2018-09-26T13:25:21.805Z,96437.54
2018-09-26T13:27:50.891Z,96424.22
2018-09-26T13:30:19.747Z,96416.33
2018-09-26T13:32:48.872Z,96419.89
2018-09-26T13:35:17.689Z,96434.84
2018-09-26T13:37:46.580Z,96414.44
2018-09-26T13:40:15.528Z,96448.19
2018-09-26T13:42:44.689Z,96422.52
2018-09-26T13:45:13.634Z,96415.65
2018-09-26T13:47:42.587Z,96417.13
2018-09-26T13:50:11.537Z,96415.67
2018-09-26T13:52:40.576Z,96426.52
2018-09-26T13:55:09.345Z,96416.69
2018-09-26T13:57:38.250Z,96401.90
2018-09-26T14:00:07.861Z,96410.09
2018-09-26T14:02:36.942Z,96412.69
2018-09-26T14:05:06.253Z,96409.01
2018-09-26T14:07:35.096Z,96407.36
2018-09-26T14:10:03.962Z,96414.63
2018-09-26T14:12:32.847Z,96410.19
2018-09-26T14:15:01.835Z,96412.00
2018-09-26T14:17:30.682Z,96406.94
2018-09-26T14:19:59.480Z,96406.74
2018-09-26T14:22:28.574Z,96408.09
2018-09-26T14:24:57.563Z,96411.89
2018-09-26T14:27:26.467Z,96403.09
2018-09-26T14:29:55.545Z,96405.23
2018-09-26T14:32:24.495Z,96409.34
2018-09-26T14:34:53.509Z,96406.19
2018-09-26T14:37:22.279Z,96403.44
2018-09-26T14:39:51.184Z,96408.84
2018-09-26T14:42:20.049Z,96406.55
2018-09-26T14:44:48.873Z,96406.03
2018-09-26T14:47:17.765Z,96406.20
2018-09-26T14:49:46.727Z,96412.48
2018-09-26T14:52:15.607Z,96422.47
2018-09-26T14:54:44.423Z,96414.59
2018-09-26T14:57:13.316Z,96424.94
2018-09-26T14:59:42.525Z,96430.66
2018-09-26T15:02:11.472Z,96426.75
2018-09-26T15:04:40.674Z,96440.02
2018-09-26T15:07:09.723Z,96440.19
2018-09-26T15:09:38.652Z,96438.72
2018-09-26T15:12:07.714Z,96434.09
2018-09-26T15:14:36.820Z,96440.34
2018-09-26T15:17:06.021Z,96444.93
2018-09-26T15:19:34.800Z,96437.88
2018-09-26T15:22:03.584Z,96435.42
2018-09-26T15:24:32.446Z,96443.30
2018-09-26T15:27:01.391Z,96440.36
2018-09-26T15:29:30.320Z,96449.71
2018-09-26T15:31:59.092Z,96457.09
2018-09-26T15:34:27.969Z,96455.58
2018-09-26T15:36:56.795Z,96443.77
2018-09-26T15:39:25.539Z,96443.79
2018-09-26T15:41:54.357Z,96440.83
2018-09-26T15:44:23.355Z,96447.23
2018-09-26T15:46:52.345Z,96439.02
2018-09-26T15:49:21.161Z,96449.52
2018-09-26T15:51:50.012Z,96449.52
2018-09-26T15:54:18.825Z,96459.83
2018-09-26T15:56:47.869Z,96454.74
2018-09-26T15:59:16.663Z,96449.49
2018-09-26T16:01:45.537Z,96453.39
2018-09-26T16:04:15.754Z,96451.28
2018-09-26T16:06:45.605Z,96455.05
2018-09-26T16:09:17.280Z,96464.87
2018-09-26T16:11:46.104Z,96462.56
2018-09-26T16:14:15.047Z,96472.76
2018-09-26T16:16:44.073Z,96467.30
2018-09-26T16:19:12.997Z,96472.70
2018-09-26T16:21:42.084Z,96476.82
2018-09-26T16:24:11.022Z,96483.17
2018-09-26T16:26:40.096Z,96484.81
2018-09-26T16:29:09.043Z,96473.50
2018-09-26T16:31:37.966Z,96471.19
2018-09-26T16:34:07.028Z,96476.89
2018-09-26T16:36:35.890Z,96480.48
2018-09-26T16:39:06.593Z,96485.36
2018-09-26T16:41:36.547Z,96481.27
2018-09-26T16:44:05.511Z,96494.50
2018-09-26T16:46:34.717Z,96487.76
2018-09-26T16:49:03.603Z,96498.88
2018-09-26T16:51:32.408Z,96505.43
2018-09-26T16:54:01.227Z,96511.16
2018-09-26T16:56:30.144Z,96511.78
2018-09-26T16:58:59.441Z,96518.83
2018-09-26T17:01:28.315Z,96511.78
2018-09-26T17:03:57.116Z,96518.12
2018-09-26T17:06:25.970Z,96516.95
2018-09-26T17:08:55.010Z,96513.02
2018-09-26T17:11:23.856Z,96521.93
2018-09-26T17:13:52.906Z,96522.27
2018-09-26T17:16:21.967Z,96525.86
2018-09-26T17:18:50.881Z,96523.80
2018-09-26T17:21:19.864Z,96521.17
2018-09-26T17:23:48.958Z,96519.53
2018-09-26T17:26:17.996Z,96514.30
2018-09-26T17:28:47.086Z,96518.55
2018-09-26T17:31:16.138Z,96519.53
2018-09-26T17:33:45.085Z,96529.48
2018-09-26T17:36:13.957Z,96529.33
2018-09-26T17:38:43.266Z,96527.83
2018-09-26T17:41:12.068Z,96529.47
2018-09-26T17:43:40.956Z,96538.73
2018-09-26T17:46:09.997Z,96540.05
2018-09-26T17:48:38.913Z,96546.05
2018-09-26T17:51:07.796Z,96542.94
2018-09-26T17:53:37.204Z,96541.91
2018-09-26T17:56:05.987Z,96538.47
2018-09-26T17:58:34.978Z,96545.02
2018-09-26T18:01:03.808Z,96542.89
2018-09-26T18:03:32.557Z,96550.06
2018-09-26T18:06:01.430Z,96547.11
2018-09-26T18:08:30.369Z,96539.39
2018-09-26T18:10:59.369Z,96543.84
2018-09-26T18:13:28.317Z,96548.06
2018-09-26T18:15:57.445Z,96545.73
2018-09-26T18:18:33.041Z,96544.91
2018-09-26T18:21:01.876Z,96543.92
2018-09-26T18:23:30.749Z,96545.17
2018-09-26T18:25:59.610Z,96532.57
2018-09-26T18:28:28.466Z,96526.37
2018-09-26T18:30:57.353Z,96526.31
2018-09-26T18:33:26.143Z,96528.58
2018-09-26T18:35:55.015Z,96531.63
2018-09-26T18:38:23.859Z,96531.61
2018-09-26T18:40:52.705Z,96524.58
2018-09-26T18:43:21.472Z,96535.88
2018-09-26T18:45:50.764Z,96525.55
2018-09-26T18:48:19.737Z,96529.77
2018-09-26T18:50:48.568Z,96528.11
2018-09-26T18:53:17.359Z,96531.39
2018-09-26T18:55:46.526Z,96527.75
2018-09-26T18:58:15.316Z,96531.34
2018-09-26T19:00:44.238Z,96532.36
2018-09-26T19:03:13.709Z,96532.98
2018-09-26T19:05:42.537Z,96542.63
2018-09-26T19:08:11.430Z,96546.55
2018-09-26T19:10:40.283Z,96538.56
2018-09-26T19:13:09.170Z,96537.25
2018-09-26T19:15:38.062Z,96536.86
2018-09-26T19:18:06.898Z,96540.61
2018-09-26T19:20:35.748Z,96543.72
2018-09-26T19:23:04.584Z,96550.88
2018-09-26T19:25:33.364Z,96547.50
2018-09-26T19:28:02.221Z,96549.30
2018-09-26T19:30:31.282Z,96551.91
2018-09-26T19:33:00.239Z,96552.05
2018-09-26T19:35:29.103Z,96546.48
2018-09-26T19:37:57.985Z,96543.15
2018-09-26T19:40:26.915Z,96541.44
2018-09-26T19:42:55.773Z,96544.59
2018-09-26T19:45:24.667Z,96549.80
2018-09-26T19:47:53.821Z,96551.64
2018-09-26T19:50:22.648Z,96555.11
2018-09-26T19:52:51.839Z,96548.91
2018-09-26T19:55:20.649Z,96544.40
2018-09-26T19:57:49.760Z,96548.66
2018-09-26T20:00:18.568Z,96545.08
2018-09-26T20:02:47.453Z,96545.77
2018-09-26T20:05:16.434Z,96550.28
2018-09-26T20:07:45.257Z,96542.23
2018-09-26T20:10:14.075Z,96540.02
2018-09-26T20:12:43.174Z,96542.20
2018-09-26T20:15:12.084Z,96529.27
2018-09-26T20:17:40.941Z,96533.59
2018-09-26T20:20:09.887Z,96536.22
2018-09-26T20:22:38.717Z,96552.25
2018-09-26T20:25:07.726Z,96554.69
2018-09-26T20:27:36.801Z,96552.77
2018-09-26T20:30:07.164Z,96547.54
2018-09-26T20:32:35.928Z,96542.48
2018-09-26T20:35:05.054Z,96542.31
2018-09-26T20:37:34.123Z,96537.08
2018-09-26T20:40:02.965Z,96537.42
2018-09-26T20:42:31.825Z,96533.64
2018-09-26T20:45:00.949Z,96542.55
2018-09-26T20:47:30.067Z,96535.92
2018-09-26T20:49:58.865Z,96538.63
2018-09-26T20:52:27.654Z,96538.28
2018-09-26T20:54:56.495Z,96542.48
2018-09-26T20:57:25.300Z,96539.39
2018-09-26T20:59:54.173Z,96543.03
2018-09-26T21:02:23.084Z,96545.92
2018-09-26T21:04:51.904Z,96538.42
2018-09-26T21:07:20.766Z,96532.09
2018-09-26T21:09:49.575Z,96526.88
2018-09-26T21:12:18.402Z,96529.17
2018-09-26T21:14:47.266Z,96531.61
2018-09-26T21:17:16.205Z,96528.94
2018-09-26T21:19:45.129Z,96538.66
2018-09-26T21:22:14.063Z,96543.58
2018-09-26T21:24:42.876Z,96538.66
2018-09-26T21:27:11.715Z,96546.63
2018-09-26T21:29:40.483Z,96541.08
2018-09-26T21:32:09.299Z,96540.22
2018-09-26T21:34:38.192Z,96543.37
2018-09-26T21:37:06.971Z,96543.25
2018-09-26T21:39:36.044Z,96553.78
2018-09-26T21:42:04.935Z,96549.17
2018-09-26T21:44:33.741Z,96551.70
2018-09-26T21:47:02.575Z,96555.09
2018-09-26T21:49:31.392Z,96555.63
2018-09-26T21:52:00.288Z,96555.44
2018-09-26T21:54:29.193Z,96546.48
2018-09-26T21:56:58.044Z,96546.91
2018-09-26T21:59:26.877Z,96543.90
2018-09-26T22:01:55.680Z,96534.20
2018-09-26T22:04:24.520Z,96535.51
2018-09-26T22:06:53.587Z,96539.50
2018-09-26T22:09:22.351Z,96541.17
2018-09-26T22:11:51.207Z,96538.42
2018-09-26T22:14:20.128Z,96536.16
2018-09-26T22:16:48.931Z,96528.95
2018-09-26T22:19:17.824Z,96530.34
2018-09-26T22:21:53.247Z,96540.48
2018-09-26T22:24:22.261Z,96536.03
2018-09-26T22:26:51.039Z,96533.91
2018-09-26T22:29:19.884Z,96537.38
2018-09-26T22:31:48.904Z,96541.95
2018-09-26T22:34:17.693Z,96541.35
2018-09-26T22:36:46.587Z,96539.83
2018-09-26T22:39:15.465Z,96538.62
2018-09-26T22:41:44.220Z,96538.55
2018-09-26T22:44:13.064Z,96527.38
2018-09-26T22:46:41.848Z,96535.11
2018-09-26T22:49:10.579Z,96539.38
2018-09-26T22:51:39.431Z,96536.16
2018-09-26T22:54:08.193Z,96541.37
2018-09-26T22:56:36.952Z,96543.20
2018-09-26T22:59:05.891Z,96532.50
2018-09-26T23:01:34.676Z,96536.89
2018-09-26T23:04:03.542Z,96536.36
2018-09-26T23:06:32.440Z,96537.79
2018-09-26T23:09:01.332Z,96531.31
2018-09-26T23:11:30.432Z,96529.75
2018-09-26T23:13:59.292Z,96529.88
2018-09-26T23:16:28.152Z,96527.81
2018-09-26T23:18:57.035Z,96528.67
2018-09-26T23:21:25.888Z,96528.14
2018-09-26T23:23:54.902Z,96527.19
2018-09-26T23:26:23.780Z,96519.53
2018-09-26T23:28:52.676Z,96520.83
2018-09-26T23:31:21.619Z,96520.16
2018-09-26T23:33:50.757Z,96523.02
2018-09-26T23:36:19.520Z,96518.95
2018-09-26T23:38:48.268Z,96514.00
2018-09-26T23:41:17.177Z,96515.48
2018-09-26T23:43:45.992Z,96513.01
2018-09-26T23:46:14.804Z,96506.50
2018-09-26T23:48:43.823Z,96504.30
2018-09-26T23:51:12.630Z,96498.75
2018-09-26T23:53:41.472Z,96500.17
2018-09-26T23:56:10.323Z,96490.89
2018-09-26T23:58:39.189Z,96487.59
